Time;durP1;ratioP1;P1;durP2;ratioP2;P2;SDS_P1;SDS_P2;PMS_P1;PMS_P2;Temp;Humidity;BMP_temperature;BMP_pressure;BME280_temperature;BME280_humidity;BME280_pressure;Samples;Min_cycle;Max_cycle;Signal;HPM_P1;HPM_P2
2021/10/24 00:00:38;;;;;;;10.23;5.93;;;205.00;2252.80;;;;;;5057407;28;20037;-77
2021/10/24 00:03:04;;;;;;;10.75;6.38;;;204.90;2252.80;;;;;;5075715;28;20383;-77
2021/10/24 00:05:30;;;;;;;9.57;5.22;;;204.90;2252.80;;;;;;5057104;28;20086;-77
2021/10/24 00:07:55;;;;;;;8.77;4.88;;;204.90;2252.80;;;;;;5075369;28;20812;-76
2021/10/24 00:10:21;;;;;;;15.68;5.03;;;204.90;2252.80;;;;;;5075637;28;20039;-76
2021/10/24 00:12:47;;;;;;;12.95;6.20;;;204.80;2252.80;;;;;;5058006;28;20029;-76
2021/10/24 00:15:13;;;;;;;10.43;5.70;;;204.80;2252.80;;;;;;5075251;28;20048;-76
2021/10/24 00:17:39;;;;;;;10.80;5.28;;;204.80;2252.80;;;;;;5075617;28;20387;-75
2021/10/24 00:20:05;;;;;;;8.50;4.05;;;204.80;2252.80;;;;;;5075365;28;20025;-76
2021/10/24 00:22:31;;;;;;;9.18;5.18;;;204.90;2252.80;;;;;;5075248;28;20025;-76
2021/10/24 00:24:57;;;;;;;9.07;5.15;;;204.80;2252.80;;;;;;5071285;28;20024;-76
2021/10/24 00:27:23;;;;;;;10.73;4.72;;;180.10;2252.80;;;;;;5065032;28;20029;-75
2021/10/24 00:29:49;;;;;;;7.47;5.28;;;180.10;2252.80;;;;;;5069353;28;20383;-76
2021/10/24 00:32:14;;;;;;;6.95;4.60;;;180.10;2252.80;;;;;;5075145;28;20016;-76
2021/10/24 00:34:40;;;;;;;9.02;4.18;;;180.00;2252.80;;;;;;5075706;28;20024;-76
2021/10/24 00:37:07;;;;;;;6.03;4.28;;;180.00;2252.80;;;;;;5063345;28;20037;-76
2021/10/24 00:39:33;;;;;;;10.48;4.35;;;180.00;2252.80;;;;;;5074255;28;20034;-75
2021/10/24 00:41:58;;;;;;;13.18;4.80;;;180.00;2252.80;;;;;;5057532;28;20024;-76
2021/10/24 00:44:31;;;;;;;9.60;5.85;;;180.00;2252.80;;;;;;5075798;28;20025;-75
2021/10/24 00:46:58;;;;;;;9.77;5.43;;;180.00;2252.80;;;;;;5062080;28;20024;-75
2021/10/24 00:49:25;;;;;;;9.40;5.72;;;180.00;2252.80;;;;;;5074055;28;20028;-76
2021/10/24 00:51:52;;;;;;;23.08;6.90;;;180.00;2252.80;;;;;;5075625;28;20040;-76
2021/10/24 00:54:26;;;;;;;9.73;5.70;;;180.00;2252.80;;;;;;5075128;28;20021;-75
2021/10/24 00:56:56;;;;;;;11.05;5.32;;;180.00;2252.80;;;;;;5075287;28;20027;-76
2021/10/24 00:59:23;;;;;;;8.43;4.65;;;180.10;2252.80;;;;;;5073756;28;20401;-76
2021/10/24 01:01:49;;;;;;;7.72;4.25;;;180.00;2252.80;;;;;;5074884;28;20035;-76
2021/10/24 01:04:15;;;;;;;12.05;4.72;;;180.00;2252.80;;;;;;5075545;28;20024;-76
2021/10/24 01:06:42;;;;;;;6.97;3.35;;;180.00;2252.80;;;;;;5073139;28;20032;-76
2021/10/24 01:09:14;;;;;;;7.97;4.45;;;180.00;2252.80;;;;;;5075163;28;20082;-76
2021/10/24 01:11:41;;;;;;;7.43;4.00;;;180.00;2252.80;;;;;;5083924;28;20020;-76
2021/10/24 01:14:08;;;;;;;6.43;4.38;;;180.00;2252.80;;;;;;5073454;28;20544;-76
2021/10/24 01:16:36;;;;;;;6.43;3.45;;;204.80;2252.80;;;;;;5056347;28;20051;-75
2021/10/24 01:19:06;;;;;;;5.82;3.92;;;180.00;2252.80;;;;;;5075108;28;20028;-76
2021/10/24 01:21:32;;;;;;;6.70;3.63;;;179.90;2252.80;;;;;;5055811;28;20028;-76
2021/10/24 01:23:59;;;;;;;9.85;3.92;;;180.00;2252.80;;;;;;5058231;28;20031;-77
2021/10/24 01:26:26;;;;;;;9.15;4.05;;;179.90;2252.80;;;;;;5051699;28;20028;-76
2021/10/24 01:28:53;;;;;;;12.02;4.35;;;179.90;2252.80;;;;;;5060159;28;20498;-76
2021/10/24 01:31:19;;;;;;;11.00;4.03;;;180.00;2252.80;;;;;;5076489;28;20447;-76
2021/10/24 01:33:44;;;;;;;8.70;3.65;;;180.00;2252.80;;;;;;5055502;28;20027;-77
2021/10/24 01:36:12;;;;;;;7.13;3.45;;;180.00;2252.80;;;;;;5073907;28;20016;-76
2021/10/24 01:38:42;;;;;;;9.70;4.93;;;180.00;2252.80;;;;;;5055452;28;20056;-77
2021/10/24 01:41:09;;;;;;;8.10;4.15;;;179.90;2252.80;;;;;;5073728;28;20067;-77
2021/10/24 01:43:35;;;;;;;17.42;6.20;;;179.90;2252.80;;;;;;5055613;28;20016;-76
2021/10/24 01:46:01;;;;;;;6.97;4.32;;;179.90;2252.80;;;;;;5064956;28;20035;-76
2021/10/24 01:48:27;;;;;;;11.27;3.90;;;179.90;2252.80;;;;;;5073579;28;20070;-76
2021/10/24 01:50:54;;;;;;;6.05;3.70;;;179.80;2252.80;;;;;;5062821;28;20524;-76
2021/10/24 01:53:29;;;;;;;10.68;4.38;;;179.80;2252.80;;;;;;5055617;28;20021;-76
2021/10/24 01:55:56;;;;;;;9.57;5.60;;;179.80;2252.80;;;;;;5061888;28;20391;-77
2021/10/24 01:58:22;;;;;;;7.70;4.13;;;179.80;2252.80;;;;;;5055431;28;20024;-77
2021/10/24 02:00:49;;;;;;;9.00;3.58;;;179.80;2252.80;;;;;;5055240;28;20070;-76
2021/10/24 02:03:16;;;;;;;9.35;4.05;;;179.70;2252.80;;;;;;5054939;28;20361;-76
2021/10/24 02:05:42;;;;;;;7.40;3.85;;;179.70;2252.80;;;;;;5073123;28;20459;-75
2021/10/24 02:08:08;;;;;;;8.07;3.80;;;179.70;2252.80;;;;;;5072854;28;20467;-75
2021/10/24 02:10:36;;;;;;;11.00;4.53;;;179.70;2252.80;;;;;;5070936;28;20052;-76
2021/10/24 02:13:03;;;;;;;7.75;3.78;;;179.60;2252.80;;;;;;5073145;28;20024;-75
2021/10/24 02:15:29;;;;;;;6.25;3.95;;;179.60;2252.80;;;;;;5055241;28;20077;-77
2021/10/24 02:17:55;;;;;;;8.32;3.83;;;179.50;2252.80;;;;;;5072300;28;20480;-76
2021/10/24 02:20:20;;;;;;;8.52;4.57;;;179.40;2252.80;;;;;;5073126;28;20035;-75
2021/10/24 02:22:46;;;;;;;8.40;4.03;;;179.40;2252.80;;;;;;5072821;28;20025;-76
2021/10/24 02:25:12;;;;;;;10.25;4.00;;;179.40;2252.80;;;;;;5073175;28;20035;-76
2021/10/24 02:27:38;;;;;;;10.93;4.00;;;179.40;2252.80;;;;;;5057296;28;20032;-75
2021/10/24 02:30:09;;;;;;;7.00;4.25;;;179.30;2252.80;;;;;;5072766;28;20035;-75
2021/10/24 02:32:35;;;;;;;10.90;4.05;;;179.30;2252.80;;;;;;5055985;28;20060;-75
2021/10/24 02:35:02;;;;;;;8.00;3.65;;;179.40;2252.80;;;;;;5059316;28;20021;-76
2021/10/24 02:37:28;;;;;;;6.88;4.22;;;179.40;2252.80;;;;;;5075077;28;20020;-76
2021/10/24 02:39:53;;;;;;;13.70;5.72;;;179.40;2252.80;;;;;;5076980;28;20471;-76
2021/10/24 02:42:19;;;;;;;12.63;4.57;;;179.40;2252.80;;;;;;5075231;28;20028;-75
2021/10/24 02:44:45;;;;;;;9.75;3.88;;;179.30;2252.80;;;;;;5082180;28;20035;-76
2021/10/24 02:47:10;;;;;;;4.63;3.40;;;179.30;2252.80;;;;;;5077872;28;20044;-77
2021/10/24 02:49:36;;;;;;;10.50;3.90;;;179.30;2252.80;;;;;;5078448;28;20044;-76
2021/10/24 02:52:03;;;;;;;8.45;4.78;;;179.30;2252.80;;;;;;5080050;28;20024;-76
2021/10/24 02:54:29;;;;;;;7.05;4.93;;;179.30;2252.80;;;;;;5080084;28;20059;-76
2021/10/24 02:56:55;;;;;;;10.50;4.57;;;179.30;2252.80;;;;;;5061585;28;20492;-76
2021/10/24 02:59:21;;;;;;;8.38;4.30;;;179.30;2252.80;;;;;;5071552;28;20021;-76
2021/10/24 03:01:48;;;;;;;7.20;4.13;;;179.20;2252.80;;;;;;5079515;28;20104;-76
2021/10/24 03:04:14;;;;;;;8.63;4.10;;;179.20;2252.80;;;;;;5067044;28;20035;-76
2021/10/24 03:06:41;;;;;;;7.05;4.50;;;179.20;2252.80;;;;;;5061426;28;20021;-76
2021/10/24 03:09:07;;;;;;;11.32;4.25;;;154.50;2252.80;;;;;;5079524;28;20023;-76
2021/10/24 03:11:33;;;;;;;7.90;3.97;;;154.50;2252.80;;;;;;5072997;28;20016;-76
2021/10/24 03:13:59;;;;;;;9.65;5.07;;;179.60;2252.80;;;;;;5072961;28;20074;-77
2021/10/24 03:16:25;;;;;;;9.02;4.78;;;154.40;2252.80;;;;;;5061399;28;20041;-77
2021/10/24 03:18:51;;;;;;;7.35;4.30;;;154.40;2252.80;;;;;;5076505;28;20037;-76
2021/10/24 03:21:17;;;;;;;11.70;4.70;;;154.30;2252.80;;;;;;5080462;28;20437;-77
2021/10/24 03:23:43;;;;;;;10.25;5.28;;;154.40;2252.80;;;;;;5054542;28;20021;-77
2021/10/24 03:26:09;;;;;;;8.70;4.60;;;154.30;2252.80;;;;;;5066020;28;20025;-77
2021/10/24 03:28:36;;;;;;;9.02;4.47;;;154.30;2252.80;;;;;;5072831;28;20028;-76
2021/10/24 03:31:02;;;;;;;11.25;5.47;;;154.20;2252.80;;;;;;5087850;28;20025;-76
2021/10/24 03:33:28;;;;;;;8.93;4.88;;;154.20;2252.80;;;;;;5076836;28;20036;-75
2021/10/24 03:35:54;;;;;;;7.80;5.13;;;154.10;2252.80;;;;;;5076968;28;20020;-75
2021/10/24 03:38:19;;;;;;;10.35;5.10;;;154.10;2252.80;;;;;;5074154;28;20158;-75
2021/10/24 03:40:46;;;;;;;14.48;7.07;;;154.10;2252.80;;;;;;5076825;28;20029;-75
2021/10/24 03:43:13;;;;;;;13.40;6.25;;;154.10;2252.80;;;;;;5076053;28;20033;-75
2021/10/24 03:45:39;;;;;;;16.90;6.50;;;154.10;2252.80;;;;;;5064781;28;20111;-75
2021/10/24 03:48:05;;;;;;;8.82;5.15;;;154.10;2252.80;;;;;;5057501;28;20028;-76
2021/10/24 03:50:31;;;;;;;11.40;4.93;;;154.00;2252.80;;;;;;5057577;28;20044;-76
2021/10/24 03:52:57;;;;;;;10.93;5.32;;;154.00;2252.80;;;;;;5082461;28;20031;-76
2021/10/24 03:55:23;;;;;;;8.85;5.13;;;154.00;2252.80;;;;;;5063671;28;20070;-77
2021/10/24 03:57:48;;;;;;;10.88;6.20;;;154.00;2252.80;;;;;;5061055;28;20440;-76
2021/10/24 04:00:14;;;;;;;9.77;5.40;;;153.90;2252.80;;;;;;5072814;28;20032;-76
2021/10/24 04:03:09;;;;;;;9.57;5.78;;;153.90;2252.80;;;;;;5066718;28;20024;-76
2021/10/24 04:05:36;;;;;;;10.25;5.72;;;153.90;2252.80;;;;;;5002470;28;20058;-76
2021/10/24 04:08:02;;;;;;;13.77;5.88;;;153.90;2252.80;;;;;;4999554;28;20839;-76
2021/10/24 04:10:28;;;;;;;11.65;4.90;;;153.80;2252.80;;;;;;5018793;28;20057;-76
2021/10/24 04:12:55;;;;;;;8.65;5.88;;;153.80;2252.80;;;;;;4997741;28;20076;-75
2021/10/24 04:15:23;;;;;;;11.43;5.47;;;153.80;2252.80;;;;;;5014813;28;20038;-76
2021/10/24 04:17:49;;;;;;;9.85;5.57;;;153.70;2252.80;;;;;;4998309;28;20034;-76
2021/10/24 04:20:18;;;;;;;10.32;5.18;;;153.60;2252.80;;;;;;4997068;28;20125;-75
2021/10/24 04:22:44;;;;;;;11.00;5.70;;;153.60;2252.80;;;;;;5014188;28;20045;-75
2021/10/24 04:25:11;;;;;;;10.80;5.88;;;153.70;2252.80;;;;;;4997050;28;20022;-75
2021/10/24 04:27:37;;;;;;;15.65;6.85;;;153.60;2252.80;;;;;;4998237;28;20508;-76
2021/10/24 04:30:05;;;;;;;11.98;5.85;;;153.70;2252.80;;;;;;4997362;28;20181;-76
2021/10/24 04:32:31;;;;;;;13.73;5.93;;;153.60;2252.80;;;;;;4997715;28;20022;-75
2021/10/24 04:34:57;;;;;;;17.30;6.65;;;153.60;2252.80;;;;;;5011782;28;20045;-75
2021/10/24 04:37:23;;;;;;;12.90;7.07;;;153.60;2252.80;;;;;;5009738;28;20038;-76
2021/10/24 04:39:49;;;;;;;13.32;6.68;;;153.60;2252.80;;;;;;4998271;28;20042;-75
2021/10/24 04:42:15;;;;;;;25.25;8.77;;;153.60;2252.80;;;;;;5034355;28;20036;-75
2021/10/24 04:44:41;;;;;;;19.27;7.78;;;153.60;2252.80;;;;;;5063127;28;20054;-76
2021/10/24 04:47:06;;;;;;;19.75;9.25;;;153.60;2252.80;;;;;;5090948;28;20051;-76
2021/10/24 04:49:32;;;;;;;18.65;7.65;;;128.90;2252.80;;;;;;5085884;28;20044;-76
2021/10/24 04:51:59;;;;;;;19.77;8.00;;;128.90;2252.80;;;;;;5081879;28;20031;-75
2021/10/24 04:54:25;;;;;;;20.13;9.05;;;128.90;2252.80;;;;;;5087964;28;20016;-76
2021/10/24 04:56:52;;;;;;;16.33;7.78;;;128.90;2252.80;;;;;;5065877;28;20086;-76
2021/10/24 04:59:19;;;;;;;15.32;7.57;;;128.80;2252.80;;;;;;5060624;28;20035;-75
2021/10/24 05:01:45;;;;;;;10.00;6.45;;;128.80;2252.80;;;;;;5074643;28;20025;-75
2021/10/24 05:04:11;;;;;;;17.30;6.45;;;128.80;2252.80;;;;;;5076172;28;20023;-75
2021/10/24 05:06:38;;;;;;;12.27;5.57;;;128.80;2252.80;;;;;;5068466;28;20024;-75
2021/10/24 05:09:04;;;;;;;10.30;5.20;;;128.80;2252.80;;;;;;5085338;28;20095;-75
2021/10/24 05:11:30;;;;;;;11.55;6.07;;;128.90;2252.80;;;;;;5086159;28;20382;-74
2021/10/24 05:13:57;;;;;;;9.05;5.13;;;128.30;2252.80;;;;;;5088632;28;20031;-75
2021/10/24 05:16:23;;;;;;;9.98;6.72;;;128.80;2252.80;;;;;;5085874;28;20044;-75
2021/10/24 05:18:48;;;;;;;17.75;6.20;;;128.80;2252.80;;;;;;5057324;28;20033;-75
2021/10/24 05:21:14;;;;;;;9.80;6.32;;;128.70;2252.80;;;;;;5079432;28;20036;-76
2021/10/24 05:23:40;;;;;;;11.23;6.22;;;128.80;2252.80;;;;;;5076513;28;20399;-76
2021/10/24 05:26:06;;;;;;;10.88;5.97;;;128.80;2252.80;;;;;;5079210;28;20088;-75
2021/10/24 05:28:32;;;;;;;15.10;7.43;;;128.70;2252.80;;;;;;5077490;28;20664;-75
2021/10/24 05:30:58;;;;;;;11.50;6.85;;;128.40;2252.80;;;;;;5081627;28;20051;-75
2021/10/24 05:33:24;;;;;;;16.35;8.35;;;128.70;2252.80;;;;;;5074324;28;20467;-75
2021/10/24 05:35:52;;;;;;;16.40;7.35;;;128.60;2252.80;;;;;;5056835;28;20028;-75
2021/10/24 05:38:17;;;;;;;15.85;9.55;;;128.70;2252.80;;;;;;5080319;28;20060;-75
2021/10/24 05:40:43;;;;;;;20.27;11.80;;;128.70;2252.80;;;;;;5057534;28;20067;-75
2021/10/24 05:43:09;;;;;;;21.90;8.52;;;128.60;2252.80;;;;;;5083805;28;20024;-75
2021/10/24 05:45:36;;;;;;;20.77;8.77;;;128.70;2252.80;;;;;;5051371;28;20044;-75
2021/10/24 05:48:02;;;;;;;15.90;8.13;;;128.60;2252.80;;;;;;5084381;28;20086;-75
2021/10/24 05:50:28;;;;;;;14.68;8.63;;;128.60;2252.80;;;;;;5069866;28;20024;-75
2021/10/24 05:52:54;;;;;;;15.00;8.82;;;128.50;2252.80;;;;;;5079518;28;20142;-75
2021/10/24 05:55:21;;;;;;;22.60;9.88;;;128.70;2252.80;;;;;;5080852;28;20040;-76
2021/10/24 05:57:47;;;;;;;16.05;7.80;;;128.60;2252.80;;;;;;5078908;28;20037;-75
2021/10/24 06:00:13;;;;;;;20.02;8.63;;;128.60;2252.80;;;;;;5060167;28;20390;-74
2021/10/24 06:02:39;;;;;;;18.00;9.10;;;128.50;2252.80;;;;;;5075755;28;20487;-75
2021/10/24 06:05:05;;;;;;;18.38;10.07;;;128.50;2252.80;;;;;;5058117;28;20029;-75
2021/10/24 06:07:33;;;;;;;16.08;8.25;;;128.60;2252.80;;;;;;5060808;28;20033;-75
2021/10/24 06:10:06;;;;;;;16.42;8.45;;;128.60;2252.80;;;;;;5075867;28;20020;-75
2021/10/24 06:15:00;;;;;;;14.57;7.82;;;128.60;2252.80;;;;;;5075778;28;20016;-76
2021/10/24 06:17:26;;;;;;;12.63;7.18;;;128.70;2252.80;;;;;;5071278;28;20410;-75
2021/10/24 06:19:52;;;;;;;16.05;8.40;;;128.70;2252.80;;;;;;5057378;28;20021;-75
2021/10/24 06:22:18;;;;;;;15.20;7.85;;;128.80;2252.80;;;;;;5056909;28;20093;-75
2021/10/24 06:24:43;;;;;;;18.95;8.88;;;128.80;2252.80;;;;;;5074777;28;20112;-75
2021/10/24 06:27:09;;;;;;;15.00;9.02;;;128.90;2252.80;;;;;;5057210;28;20040;-75
2021/10/24 06:29:35;;;;;;;14.50;8.00;;;153.60;2252.80;;;;;;5045576;28;20448;-75
2021/10/24 06:32:01;;;;;;;15.82;9.88;;;153.60;2252.80;;;;;;5075184;28;20024;-75
2021/10/24 06:34:26;;;;;;;13.65;8.05;;;153.70;2252.80;;;;;;5079726;28;20039;-75
2021/10/24 06:36:52;;;;;;;14.30;6.78;;;153.70;2252.80;;;;;;5084046;28;20391;-75
2021/10/24 06:39:18;;;;;;;12.75;6.35;;;153.60;2252.80;;;;;;5078522;28;20035;-75
2021/10/24 06:41:43;;;;;;;11.63;6.72;;;153.60;2252.80;;;;;;5066206;28;20028;-75
2021/10/24 06:44:09;;;;;;;11.85;6.95;;;153.60;2252.80;;;;;;5073085;28;20020;-75
2021/10/24 06:46:35;;;;;;;12.68;7.70;;;153.60;2252.80;;;;;;5078929;28;20021;-75
2021/10/24 06:49:01;;;;;;;18.08;7.68;;;153.60;2252.80;;;;;;5071904;28;20096;-75
2021/10/24 06:51:27;;;;;;;14.02;8.48;;;153.70;2252.80;;;;;;5067613;28;20086;-75
2021/10/24 06:53:52;;;;;;;11.82;7.78;;;153.80;2252.80;;;;;;5083566;28;20023;-75
2021/10/24 06:56:18;;;;;;;12.45;6.65;;;153.90;2252.80;;;;;;5060306;28;20048;-75
2021/10/24 06:58:44;;;;;;;20.65;7.00;;;153.90;2252.80;;;;;;5062857;28;20021;-75
2021/10/24 07:01:10;;;;;;;7.70;5.63;;;154.00;2252.80;;;;;;5054156;28;20028;-76
2021/10/24 07:03:35;;;;;;;11.60;6.18;;;154.10;2252.80;;;;;;5060969;28;20025;-75
2021/10/24 07:06:01;;;;;;;10.02;6.45;;;154.00;2252.80;;;;;;5062131;28;20039;-75
2021/10/24 07:08:27;;;;;;;14.20;7.82;;;154.10;2252.80;;;;;;5066957;28;20495;-75
2021/10/24 07:10:52;;;;;;;14.43;6.90;;;154.20;2252.80;;;;;;5077093;28;20028;-75
2021/10/24 07:13:18;;;;;;;24.98;9.75;;;154.30;2252.80;;;;;;5077600;28;20031;-75
2021/10/24 07:15:44;;;;;;;11.70;7.40;;;154.40;2252.80;;;;;;5084077;28;20048;-76
2021/10/24 07:18:10;;;;;;;10.85;5.78;;;154.50;2252.80;;;;;;5079587;28;20495;-75
2021/10/24 07:20:36;;;;;;;9.30;5.70;;;179.20;2252.80;;;;;;5078563;28;20063;-75
2021/10/24 07:23:02;;;;;;;10.65;6.18;;;179.30;2252.80;;;;;;5054418;28;20467;-76
2021/10/24 07:25:28;;;;;;;13.52;6.38;;;179.20;2252.80;;;;;;5066139;28;20036;-75
2021/10/24 07:27:53;;;;;;;11.30;6.38;;;179.40;2252.80;;;;;;5078452;28;20028;-75
2021/10/24 07:30:20;;;;;;;14.18;6.68;;;179.60;2252.80;;;;;;5060380;28;20024;-76
2021/10/24 07:32:46;;;;;;;11.68;6.65;;;179.70;2252.80;;;;;;5057963;28;20033;-75
2021/10/24 07:35:12;;;;;;;12.65;7.30;;;179.80;2252.80;;;;;;5072155;28;20025;-75
2021/10/24 07:37:38;;;;;;;9.45;6.07;;;180.10;2252.80;;;;;;5053881;28;20024;-75
2021/10/24 07:40:05;;;;;;;10.30;7.50;;;204.90;2252.80;;;;;;5072041;28;20544;-75
2021/10/24 07:42:31;;;;;;;15.65;7.88;;;205.10;2252.80;;;;;;5053560;28;20029;-76
2021/10/24 07:44:57;;;;;;;13.30;8.20;;;205.50;2252.80;;;;;;5071463;28;20028;-75
2021/10/24 07:47:30;;;;;;;12.13;7.05;;;230.40;2252.80;;;;;;5062906;28;20042;-76
2021/10/24 07:50:01;;;;;;;19.05;8.60;;;230.50;2252.80;;;;;;5078080;28;20035;-76
2021/10/24 07:52:27;;;;;;;14.10;8.82;;;230.90;2252.80;;;;;;5053068;28;20557;-77
2021/10/24 07:54:52;;;;;;;12.68;7.90;;;231.00;2252.80;;;;;;5071675;28;20021;-76
2021/10/24 07:57:19;;;;;;;12.95;8.10;;;231.20;2252.80;;;;;;5070294;28;20079;-77
2021/10/24 07:59:45;;;;;;;15.07;8.38;;;256.00;2252.80;;;;;;5055786;28;20032;-76
2021/10/24 08:02:11;;;;;;;11.02;7.85;;;256.30;2252.80;;;;;;5071400;28;20028;-76
2021/10/24 08:04:37;;;;;;;10.27;7.28;;;256.50;2252.80;;;;;;5071008;28;20031;-80
2021/10/24 08:07:05;;;;;;;10.98;7.03;;;256.60;2252.80;;;;;;5072872;28;20021;-78
2021/10/24 08:09:31;;;;;;;12.73;7.82;;;256.80;2252.80;;;;;;5071409;28;20111;-77
2021/10/24 08:11:58;;;;;;;13.23;7.90;;;281.90;2278.40;;;;;;5069451;28;20029;-76
2021/10/24 08:14:24;;;;;;;12.82;7.43;;;281.90;2278.40;;;;;;5054297;28;20024;-79
2021/10/24 08:16:50;;;;;;;16.00;8.50;;;282.40;2278.40;;;;;;5074060;28;20589;-79
2021/10/24 08:19:16;;;;;;;13.32;8.00;;;307.20;2304.00;;;;;;5076941;28;20037;-79
2021/10/24 08:21:43;;;;;;;11.02;6.35;;;282.40;2278.40;;;;;;5075763;28;20028;-78
2021/10/24 08:24:08;;;;;;;8.80;6.90;;;307.30;2304.00;;;;;;5053313;28;20120;-77
2021/10/24 08:26:35;;;;;;;10.68;6.10;;;307.50;2304.00;;;;;;5075185;28;20481;-77
2021/10/24 08:29:01;;;;;;;10.43;5.40;;;307.80;2304.00;;;;;;5074351;28;20028;-76
2021/10/24 08:31:29;;;;;;;13.93;6.63;;;332.80;2329.60;;;;;;5055976;28;20111;-76
2021/10/24 08:33:58;;;;;;;9.77;6.50;;;332.90;2329.60;;;;;;5057400;28;20045;-76
2021/10/24 08:36:26;;;;;;;8.48;5.63;;;333.10;2329.60;;;;;;5057914;28;20032;-74
2021/10/24 08:38:53;;;;;;;9.75;5.70;;;333.20;2329.60;;;;;;5055266;28;20032;-74
2021/10/24 08:41:28;;;;;;;8.05;5.47;;;333.20;2329.60;;;;;;5070426;28;20040;-74
2021/10/24 08:44:00;;;;;;;8.55;5.10;;;333.30;2329.60;;;;;;5055062;28;20061;-73
2021/10/24 08:46:26;;;;;;;11.45;5.32;;;333.40;2329.60;;;;;;5075979;28;20526;-72
2021/10/24 08:48:53;;;;;;;12.10;5.53;;;333.60;2329.60;;;;;;5073158;28;20028;-74
2021/10/24 08:51:20;;;;;;;8.48;5.35;;;333.70;2329.60;;;;;;5054888;28;20445;-74
2021/10/24 08:53:49;;;;;;;7.82;5.28;;;358.50;2329.60;;;;;;5054629;28;20025;-73
2021/10/24 08:56:24;;;;;;;9.18;5.78;;;358.60;2329.60;;;;;;5055308;28;20103;-74
2021/10/24 08:58:50;;;;;;;9.15;6.13;;;359.00;2329.60;;;;;;5071761;28;20012;-73
2021/10/24 09:01:17;;;;;;;7.60;5.40;;;358.80;2329.60;;;;;;5055181;28;20452;-73
2021/10/24 09:04:13;;;;;;;10.73;5.70;;;359.20;2329.60;;;;;;5059077;28;20033;-72
2021/10/24 09:06:55;;;;;;;6.80;5.63;;;384.10;2329.60;;;;;;5057856;28;20024;-72
2021/10/24 09:09:27;;;;;;;7.53;5.47;;;384.20;2329.60;;;;;;5046459;28;20066;-72
2021/10/24 09:11:54;;;;;;;9.30;5.50;;;384.40;2329.60;;;;;;5058649;28;20483;-73
2021/10/24 09:14:46;;;;;;;10.15;7.07;;;384.40;2329.60;;;;;;5063759;28;20032;-72
2021/10/24 09:17:25;;;;;;;10.75;6.75;;;384.80;2329.60;;;;;;5089653;28;20036;-72
2021/10/24 09:19:59;;;;;;;9.43;6.22;;;384.90;2329.60;;;;;;5084535;28;20086;-72
2021/10/24 09:22:33;;;;;;;10.35;6.05;;;409.60;2355.20;;;;;;5078007;28;20107;-72
2021/10/24 09:25:03;;;;;;;10.57;7.20;;;409.90;2355.20;;;;;;5080019;28;20036;-73
2021/10/24 09:27:32;;;;;;;10.35;4.05;;;409.80;2355.20;;;;;;5057633;28;20157;-73
2021/10/24 09:30:10;;;;;;;12.55;6.13;;;409.90;2355.20;;;;;;5081566;28;20043;-73
2021/10/24 09:33:03;;;;;;;8.90;6.80;;;410.30;2355.20;;;;;;5072490;28;20494;-73
2021/10/24 09:35:39;;;;;;;11.02;5.03;;;410.30;2355.20;;;;;;5072650;28;20021;-72
2021/10/24 09:38:07;;;;;;;8.05;5.53;;;435.40;2355.20;;;;;;5053020;28;20024;-73
2021/10/24 09:40:41;;;;;;;6.18;4.30;;;435.70;2355.20;;;;;;5060573;28;20081;-74
2021/10/24 09:43:22;;;;;;;12.65;5.82;;;435.90;2355.20;;;;;;5074110;28;20433;-73
2021/10/24 09:46:09;;;;;;;7.45;4.63;;;436.00;2278.40;;;;;;5054479;28;20048;-73
2021/10/24 09:48:38;;;;;;;8.57;4.88;;;460.90;2278.40;;;;;;5054281;28;20040;-73
2021/10/24 09:51:08;;;;;;;8.35;4.68;;;461.20;2227.20;;;;;;5054272;28;20085;-73
2021/10/24 09:53:37;;;;;;;8.73;4.78;;;461.40;2227.20;;;;;;5071271;28;20016;-73
2021/10/24 09:56:12;;;;;;;12.18;6.75;;;461.50;2201.60;;;;;;5071779;28;20025;-73
2021/10/24 09:58:45;;;;;;;11.88;7.70;;;461.50;2150.40;;;;;;5059177;28;20082;-75
2021/10/24 10:01:13;;;;;;;10.38;7.38;;;486.60;2124.80;;;;;;5069195;28;20024;-74
2021/10/24 10:03:43;;;;;;;10.90;5.70;;;486.80;2099.20;;;;;;5069990;28;20099;-74
2021/10/24 10:06:08;;;;;;;8.00;5.20;;;487.00;2048.00;;;;;;5053940;28;20494;-74
2021/10/24 10:08:37;;;;;;;6.32;4.57;;;487.10;2073.60;;;;;;5070554;28;20032;-74
2021/10/24 10:11:11;;;;;;;11.77;7.85;;;487.10;2048.00;;;;;;5056719;28;20024;-74
2021/10/24 10:13:41;;;;;;;13.20;5.18;;;487.20;2022.40;;;;;;5069378;28;20040;-75
2021/10/24 10:16:11;;;;;;;9.80;5.28;;;487.00;2048.00;;;;;;5053895;28;20040;-73
2021/10/24 10:18:55;;;;;;;8.50;4.95;;;487.30;2022.40;;;;;;5057334;28;20552;-75
2021/10/24 10:21:47;;;;;;;9.85;5.90;;;512.40;1971.20;;;;;;5069739;28;20105;-74
2021/10/24 10:24:33;;;;;;;9.13;5.70;;;512.00;2022.40;;;;;;5034123;28;20111;-74
2021/10/24 10:27:00;;;;;;;15.82;6.57;;;512.00;1996.80;;;;;;5027317;28;20546;-74
2021/10/24 10:30:10;;;;;;;12.88;7.07;;;487.30;1996.80;;;;;;5015692;28;20060;-74
2021/10/24 10:32:43;;;;;;;12.10;6.75;;;512.30;1971.20;;;;;;5029811;28;20504;-74
2021/10/24 10:35:18;;;;;;;9.32;6.57;;;512.70;1894.40;;;;;;5035020;28;20041;-74
2021/10/24 10:37:52;;;;;;;8.18;5.38;;;512.80;1894.40;;;;;;5013522;28;20404;-73
2021/10/24 10:40:19;;;;;;;8.07;5.65;;;537.60;1920.00;;;;;;5018985;28;20443;-73
2021/10/24 10:42:45;;;;;;;9.20;4.82;;;512.80;1894.40;;;;;;5019390;28;20456;-73
2021/10/24 10:45:14;;;;;;;9.88;4.03;;;537.70;1894.40;;;;;;5029158;28;20051;-74
2021/10/24 10:47:53;;;;;;;14.02;6.40;;;537.80;1920.00;;;;;;5029743;28;20079;-74
2021/10/24 10:50:28;;;;;;;9.50;4.57;;;537.80;1868.80;;;;;;5034720;28;20036;-74
2021/10/24 10:53:01;;;;;;;7.68;4.78;;;537.60;1868.80;;;;;;5025987;28;20021;-74
2021/10/24 10:55:56;;;;;;;9.82;4.43;;;538.40;1817.60;;;;;;5033689;28;20047;-74
2021/10/24 10:58:48;;;;;;;8.98;4.35;;;538.10;1766.40;;;;;;5030813;28;20061;-74
2021/10/24 11:01:23;;;;;;;8.00;4.43;;;538.30;1740.80;;;;;;5054251;28;20040;-74
2021/10/24 11:03:56;;;;;;;5.85;4.25;;;538.40;1766.40;;;;;;5053317;28;20784;-74
2021/10/24 11:06:28;;;;;;;6.57;3.90;;;563.20;1792.00;;;;;;5065203;28;20114;-74
2021/10/24 11:09:10;;;;;;;5.47;3.80;;;538.10;1766.40;;;;;;5051603;28;20025;-74
2021/10/24 11:11:45;;;;;;;6.32;4.18;;;538.50;1766.40;;;;;;5069134;28;20020;-73
2021/10/24 11:14:11;;;;;;;9.27;4.15;;;538.10;1766.40;;;;;;5068388;28;20024;-74
2021/10/24 11:16:44;;;;;;;7.50;3.85;;;563.20;1766.40;;;;;;5070442;28;20052;-74
2021/10/24 11:19:37;;;;;;;7.22;4.00;;;538.30;1792.00;;;;;;5071105;28;20047;-74
2021/10/24 11:22:06;;;;;;;6.18;4.03;;;538.10;1792.00;;;;;;5069466;28;20028;-74
2021/10/24 11:24:46;;;;;;;10.90;5.15;;;538.40;1740.80;;;;;;5054227;28;20058;-74
2021/10/24 11:27:16;;;;;;;8.48;4.45;;;563.60;1740.80;;;;;;5053550;28;20025;-74
2021/10/24 11:29:52;;;;;;;8.18;5.05;;;563.90;1740.80;;;;;;5066744;28;20021;-74
2021/10/24 11:32:26;;;;;;;8.77;4.38;;;588.90;1638.40;;;;;;5044674;28;20116;-74
2021/10/24 11:34:53;;;;;;;11.45;5.03;;;588.80;1612.80;;;;;;5070464;28;20430;-75
2021/10/24 11:37:35;;;;;;;8.77;5.15;;;589.10;1587.20;;;;;;5044504;28;20387;-74
2021/10/24 11:40:03;;;;;;;32.72;16.77;;;614.50;1561.60;;;;;;5069938;28;20024;-74
2021/10/24 11:42:30;;;;;;;17.02;9.18;;;614.50;1561.60;;;;;;5070183;28;20541;-74
2021/10/24 11:44:56;;;;;;;10.90;7.53;;;589.40;1587.20;;;;;;5069934;28;20070;-74
2021/10/24 11:47:22;;;;;;;7.50;4.97;;;589.50;1536.00;;;;;;5071234;28;20036;-74
2021/10/24 11:49:51;;;;;;;7.28;3.83;;;614.60;1510.40;;;;;;5051824;28;20476;-74
2021/10/24 11:52:29;;;;;;;6.35;3.85;;;589.60;1536.00;;;;;;5056780;28;20390;-73
2021/10/24 11:55:09;;;;;;;8.60;3.92;;;589.40;1536.00;;;;;;5055955;28;20071;-73
2021/10/24 12:00:24;;;;;;;17.65;8.05;;;614.50;1484.80;;;;;;5076856;28;20085;-74
2021/10/24 12:03:00;;;;;;;15.02;9.35;;;589.70;1459.20;;;;;;5072229;28;20021;-74
2021/10/24 12:05:32;;;;;;;9.35;5.85;;;589.30;1484.80;;;;;;5070313;28;20056;-74
2021/10/24 12:07:58;;;;;;;9.65;5.72;;;589.60;1484.80;;;;;;5071449;28;20484;-74
2021/10/24 12:10:37;;;;;;;11.55;6.20;;;589.70;1433.60;;;;;;5073813;28;20357;-74
2021/10/24 12:13:33;;;;;;;9.90;5.55;;;589.20;1459.20;;;;;;5054765;28;20903;-74
2021/10/24 12:16:00;;;;;;;6.75;3.75;;;589.10;1433.60;;;;;;5055377;28;20376;-74
2021/10/24 12:18:28;;;;;;;7.85;4.65;;;588.90;1408.00;;;;;;5055712;28;20025;-74
2021/10/24 12:20:56;;;;;;;7.05;4.30;;;563.90;1433.60;;;;;;5056838;28;20060;-74
2021/10/24 12:23:22;;;;;;;9.07;5.35;;;564.10;1433.60;;;;;;5059771;28;20043;-74
2021/10/24 12:25:51;;;;;;;9.73;4.57;;;589.00;1433.60;;;;;;5073172;28;20043;-74